KWJF/WJF METAR and TAF weather

Enter ICAO airport designator
Station Type Date Time Source
KWJF METAR 2022/01/29 10:56 UTC NOAA

KWJF 291056Z AUTO 29006KT 10SM CLR M02/M12 A3026 RMK AO2 SLP259 T10221117


Station Type Date Time Source
KWJF Decoded METAR 2022/01/29 10:56 UTC NOAA

LANCASTER FOX AIRFIELD, CA, United States (KWJF) 34-44N 118-13W
Jan 29, 2022 - 05:56 AM EST / 2022.01.29 1056 UTC
Wind: from the WNW (290 degrees) at 7 MPH (6 KT):0
Visibility: 10 mile(s):0
Sky conditions: clear
Temperature: 28.0 F (-2.2 C)
Windchill: 21 F (-6 C):1
Dew Point: 10.9 F (-11.7 C)
Relative Humidity: 48%
Pressure (altimeter): 30.26 in. Hg (1024 hPa)
ob: KWJF 291056Z AUTO 29006KT 10SM CLR M02/M12 A3026 RMK AO2 SLP259 T10221117
cycle: 11

Station Type Date Time Source
KWJF TAF 2022/01/29 12:26 UTC NOAA

TAF KWJF 291124Z 2912/3012 VRB03KT P6SM SCT200
FM292000 05006KT P6SM BKN150
FM300000 32006KT P6SM OVC250
FM300600 VRB03KT P6SM BKN250

Example: see airport list